Date,TemperatureHighF,TemperatureAvgF,TemperatureLowF,DewpointHighF,DewpointAvgF,DewpointLowF,HumidityHigh,HumidityAvg,HumidityLow,PressureMaxIn,PressureMinIn,WindSpeedMaxMPH,WindSpeedAvgMPH,GustSpeedMaxMPH,PrecipitationSumIn
2013-1-1,23,15,4,11,5,0,83,64,41,29.81,29.67,14,4,14,0.00
2013-1-2,31,22,12,23,16,5,89,79,61,29.71,29.57,17,9,18,0.00
2013-1-3,35,25,14,26,19,11,95,79,59,29.89,29.70,21,7,22,0.00
2013-1-4,41,27,15,27,21,12,96,78,53,29.86,29.69,20,8,20,0.01
2013-1-5,44,35,27,34,28,20,98,77,64,29.68,29.49,24,12,24,0.02
2013-1-6,39,30,19,22,20,16,88,66,47,29.84,29.65,21,8,23,0.00
2013-1-7,50,40,26,28,25,20,76,57,38,29.71,29.50,26,11,26,0.00
2013-1-8,54,46,33,33,31,27,83,57,41,29.51,29.40,24,13,24,0.00
2013-1-9,59,46,32,35,30,23,85,57,25,29.91,29.66,11,5,11,0.00
2013-1-10,68,39,37,42,34,23,99,84,39,30.13,29.37,24,13,24,0.34
2013-1-11,53,52,42,49,47,41,99,82,79,29.76,29.59,29,19,29,0.01
2013-1-12,53,53,53,47,47,47,79,79,79,29.59,29.59,20,20,21,0.01
2013-1-13,53,53,53,47,47,47,79,79,79,29.59,29.59,20,20,21,0.01
2013-1-14,37,22,9,13,9,5,87,59,27,30.35,30.20,11,4,11,0.00
2013-1-15,20,19,18,12,12,10,74,72,69,30.25,30.23,4,3,4,0.00
2013-1-16,52,40,19,33,27,10,78,60,45,30.01,29.84,16,8,16,0.00
2013-1-17,48,35,24,30,23,19,99,64,39,30.32,30.07,13,6,13,0.00
2013-1-18,45,36,30,31,28,24,85,74,58,30.21,30.05,26,15,26,0.00
2013-1-19,61,46,34,32,29,24,77,55,24,30.13,29.78,23,12,23,0.00
2013-1-20,31,22,15,16,8,4,81,57,36,30.26,30.15,16,9,16,0.00
2013-1-21,15,12,11,10,-3,-11,84,50,35,30.30,30.22,20,8,22,0.00
2013-1-22,31,17,10,8,4,-5,75,56,37,30.27,30.13,12,6,14,0.00
2013-1-23,53,24,10,29,12,-22,85,63,10,30.32,30.05,20,9,20,0.00
2013-1-24,78,15,5,49,1,-39,71,55,10,30.39,30.03,20,12,20,0.00
2013-1-25,50,30,16,22,14,7,69,54,29,30.10,29.98,16,4,16,0.00
2013-1-26,68,35,20,42,21,14,89,58,39,30.16,29.85,17,10,17,0.79
2013-1-27,55,44,34,53,42,22,99,94,54,29.82,29.48,17,10,17,0.34
2013-1-28,73,59,38,61,53,38,99,83,52,29.62,29.37,30,13,30,0.01
2013-1-29,68,56,36,62,52,35,99,90,39,30.35,29.30,29,16,40,0.27
2013-1-30,32,24,22,32,19,14,99,82,66,30.17,29.77,29,5,29,0.04
2013-1-31,19,12,3,14,3,-5,82,69,57,30.69,30.19,31,12,31,0.00
2013-2-1,24,16,-2,14,7,-7,82,66,54,30.68,30.39,21,11,21,0.00
2013-2-7,77,66,54,45,35,14,69,36,10,30.12,29.90,16,6,16,0.00
2013-2-8,80,63,48,45,34,21,71,39,12,30.25,29.89,24,10,24,0.00
2013-2-9,66,51,34,38,29,21,94,48,18,30.40,30.27,17,6,17,0.00
2013-2-10,74,60,49,39,31,14,61,38,10,30.40,30.17,9,5,9,0.00
2013-2-11,77,68,59,60,52,37,95,61,27,30.15,29.83,17,7,17,0.06
2013-2-12,89,74,61,64,61,54,99,67,37,30.06,29.85,11,5,11,0.01
2013-2-13,82,51,40,55,28,19,74,42,23,30.15,29.82,20,8,20,0.00
2013-2-14,45,40,36,32,29,24,77,65,54,30.02,29.84,22,10,22,0.00
2013-2-15,32,25,15,25,15,11,86,67,55,30.41,30.22,20,12,20,0.00
2013-2-16,36,27,16,23,18,13,93,71,41,30.35,30.10,14,7,14,0.00
2013-2-17,58,42,25,32,26,20,82,57,33,30.09,29.69,18,10,18,0.00
2013-2-18,51,34,23,35,25,13,85,69,48,30.09,29.59,43,17,43,0.04
2013-2-19,29,20,13,16,6,0,78,55,30,30.39,30.09,28,13,28,0.00
2013-2-20,26,16,8,9,5,0,76,60,45,30.42,30.25,20,9,20,0.00
2013-2-21,29,21,16,25,17,9,99,86,56,30.27,29.82,36,16,36,0.00
2013-2-22,26,23,20,23,19,18,99,87,75,30.03,29.82,23,12,23,0.00
2013-2-23,38,29,14,21,18,8,82,64,47,30.04,29.95,17,9,18,0.00
2013-2-24,47,32,19,27,22,15,91,68,41,30.08,29.99,15,7,16,0.00
2013-2-25,38,34,28,30,27,24,82,74,67,30.06,29.81,24,10,24,0.00
2013-2-26,35,32,29,33,30,28,99,95,75,29.90,29.68,32,15,32,0.01
2013-2-27,35,30,26,28,26,24,99,87,67,30.07,29.87,30,16,30,0.01
2013-2-28,34,30,26,26,24,22,85,80,68,30.23,30.07,28,12,28,0.00
2013-3-1,33,27,21,24,22,17,89,80,61,30.36,30.21,19,9,20,0.00
2013-3-2,43,28,22,22,18,15,77,66,37,30.39,30.20,14,6,14,0.12
2013-3-3,43,32,23,28,22,18,82,66,49,30.20,29.84,27,12,27,0.00
2013-3-4,50,38,32,34,29,21,99,71,51,30.01,29.74,23,10,23,0.01
2013-3-5,35,30,26,34,21,15,99,70,62,30.38,30.00,40,20,40,0.24
2013-3-6,46,30,19,24,20,15,85,67,34,30.46,30.32,21,6,22,0.00
2013-3-7,44,32,21,30,24,17,86,72,53,30.34,30.20,21,12,21,0.00
2013-3-8,52,41,28,38,32,23,84,72,53,30.26,30.01,24,14,24,0.00
2013-3-9,52,45,41,51,44,35,99,96,82,30.01,29.63,21,10,21,0.98
2013-3-10,53,37,25,53,36,24,99,96,86,29.91,29.61,30,15,30,0.05
2013-3-11,35,28,24,25,22,20,94,80,59,30.05,29.87,27,12,27,0.00
2013-3-12,28,26,24,23,21,20,86,82,78,30.13,30.03,11,4,11,0.00
2013-3-13,46,32,22,22,20,18,86,63,36,30.49,30.34,14,6,14,0.00
2013-3-14,70,48,32,39,31,23,77,54,28,30.34,30.10,17,8,17,0.00
2013-3-15,82,58,39,44,38,24,99,58,12,30.14,29.71,22,8,22,0.00
2013-3-16,51,37,32,44,30,26,97,75,65,30.17,29.79,24,13,27,0.00
2013-3-17,42,33,27,32,27,22,94,77,59,30.17,29.82,24,15,24,0.00
2013-3-18,48,38,27,37,26,14,99,67,28,30.10,29.79,37,12,37,0.32
2013-3-19,46,35,27,34,20,6,99,58,21,30.29,30.09,21,7,21,0.00
2013-3-20,38,28,18,32,8,-5,98,48,18,30.42,30.17,25,12,26,0.00
2013-3-21,32,26,20,19,12,5,66,54,40,30.18,29.96,17,9,17,0.00
2013-3-22,31,30,30,19,18,17,63,62,57,30.03,30.01,6,3,6,0.00
2013-3-23,44,35,29,34,27,22,99,75,44,30.11,29.97,25,13,25,0.04
2013-3-24,32,28,24,29,25,20,99,89,70,30.09,29.95,33,17,33,0.07
2013-3-25,33,28,24,28,24,21,99,85,71,30.35,30.06,30,15,30,0.00
2013-3-26,46,31,20,27,22,18,92,70,44,30.42,30.32,16,6,17,0.00
2013-3-27,53,36,25,35,27,19,86,73,50,30.35,30.24,20,8,20,0.02
2013-3-28,64,48,33,40,34,26,84,62,32,30.30,30.19,16,8,16,0.00
2013-3-29,70,54,37,39,33,20,90,52,17,30.28,30.14,61,9,61,0.00
2013-3-30,67,52,49,56,44,33,99,74,51,30.16,29.93,17,7,17,0.07
2013-3-31,61,58,48,44,36,31,88,46,35,30.01,30.00,26,15,26,0.06
2013-4-1,45,37,27,19,16,13,62,42,28,30.34,30.27,17,9,17,0.00
2013-4-2,56,44,21,23,17,10,82,36,18,30.40,30.29,14,5,15,0.00
2013-4-3,54,41,28,29,22,19,75,50,27,30.42,30.28,17,7,17,0.00
2013-4-4,67,50,32,34,24,18,69,39,19,30.29,30.09,17,4,17,0.00
2013-4-5,71,55,38,41,36,31,77,51,29,30.23,29.87,26,12,26,0.00
2013-4-6,74,63,54,49,41,35,61,45,27,29.88,29.69,36,18,37,0.00
2013-4-7,78,61,46,56,44,38,99,55,25,29.93,29.73,24,7,24,0.77
2013-4-8,74,62,50,64,58,50,99,88,67,29.80,29.70,17,7,17,0.06
2013-4-9,77,66,47,64,59,46,99,79,58,29.85,29.69,27,13,27,0.00
2013-4-10,50,42,36,49,42,34,99,99,95,29.98,29.73,37,11,37,1.05
2013-4-11,39,34,33,38,32,29,99,91,87,29.82,29.75,21,14,21,0.00
2013-4-12,48,39,32,34,31,26,87,74,56,30.06,29.75,22,12,22,0.02
2013-4-13,59,44,28,40,34,26,97,68,45,30.10,29.76,23,9,23,0.00
2013-4-14,70,58,45,56,44,30,87,61,35,29.76,29.50,41,14,41,0.56
2013-4-15,55,46,42,34,30,25,71,55,38,30.08,29.75,21,8,21,0.00
2013-4-16,48,42,35,35,32,29,88,68,55,30.23,30.06,22,12,22,0.00
2013-4-17,54,45,42,47,43,34,99,93,67,30.17,29.67,32,13,32,1.02
2013-4-18,47,38,34,47,35,27,99,90,71,29.94,29.63,32,18,32,0.52
2013-4-19,51,40,31,28,24,18,80,57,30,30.06,29.90,34,18,34,1.94
2013-4-21,45,45,45,22,22,22,40,40,40,30.06,30.06,8,8,15,1.94
2013-4-22,68,52,40,53,46,22,99,84,40,30.06,29.66,23,10,23,0.28
2013-4-23,43,36,30,40,33,23,99,90,69,29.89,29.76,28,12,28,0.34
2013-4-24,56,43,27,37,29,22,88,60,33,29.95,29.83,27,10,27,0.00
2013-4-25,69,54,37,41,35,24,84,52,23,30.01,29.83,23,8,23,0.00
2013-4-26,59,54,50,50,46,40,93,75,55,29.94,29.84,26,12,27,0.00
2013-4-27,63,53,47,49,48,47,99,85,59,29.93,29.72,11,5,11,0.00
2013-4-28,77,61,42,55,50,42,99,72,40,29.72,29.49,22,9,23,0.00
2013-4-29,84,70,55,64,59,53,96,69,48,29.53,29.32,24,12,24,0.00
2013-4-30,85,76,67,58,54,50,58,47,36,29.54,29.33,38,18,38,0.00
2013-5-1,70,58,40,53,46,35,85,65,49,29.99,29.53,35,15,35,0.00
2013-5-2,40,37,33,35,34,30,99,92,82,30.14,29.99,27,12,29,1.22
2013-5-3,40,37,34,36,34,32,99,89,77,30.02,29.64,18,9,27,0.13
2013-5-4,52,43,34,50,42,33,99,97,86,29.78,29.56,14,8,24,0.21
2013-5-5,56,50,44,52,48,43,99,94,84,29.84,29.75,11,6,17,0.15
2013-5-6,52,51,50,52,50,49,99,99,97,29.84,29.78,10,5,14,0.00
2013-5-7,80,65,50,59,51,46,99,65,34,29.81,29.69,8,2,13,0.18
2013-5-8,76,68,54,60,57,48,91,68,51,29.72,29.61,18,6,24,0.18
2013-5-9,71,62,56,65,60,54,99,93,68,29.66,29.55,15,4,19,0.59
2013-5-10,71,59,52,57,52,45,99,80,48,29.78,29.65,12,5,19,0.01
2013-5-11,64,56,44,48,33,17,93,47,16,29.96,29.75,24,8,35,0.00
2013-5-12,44,42,38,28,26,25,60,53,47,29.97,29.95,2,1,4,0.00
2013-5-13,79,66,47,57,48,29,72,54,31,29.87,29.62,14,8,18,0.00
2013-5-14,95,80,62,58,50,36,79,40,15,29.62,29.45,24,11,32,0.00
2013-5-15,89,77,66,66,58,48,81,54,34,29.61,29.50,16,5,23,0.00
2013-5-16,84,74,62,70,63,58,99,71,44,29.62,29.51,14,5,21,0.00
2013-5-17,84,72,60,65,62,59,99,72,48,29.66,29.58,11,4,14,0.15
2013-5-18,86,73,62,67,63,59,97,73,48,29.66,29.54,15,5,20,0.00
2013-5-21,76,67,59,55,50,42,80,56,39,30.29,29.89,19,9,30,0.00
2013-5-22,66,59,53,53,50,48,86,72,58,30.14,29.92,15,7,22,0.00
2013-5-23,72,61,55,54,50,46,86,69,42,30.43,30.14,13,5,18,0.00
2013-5-24,74,62,49,54,48,43,95,62,34,30.52,30.31,17,6,25,0.00
2013-5-25,86,71,61,66,57,43,83,63,46,30.37,30.19,21,9,26,0.00
2013-5-26,85,75,66,70,67,62,99,77,58,30.25,30.06,19,8,24,0.00
2013-5-27,80,70,60,74,64,56,99,84,67,30.17,29.86,27,10,38,1.80
2013-5-28,83,71,61,75,69,57,99,92,70,30.04,29.84,30,8,37,2.35
2013-5-29,83,74,62,71,66,62,99,78,63,29.99,29.82,24,11,34,0.01
2013-5-30,75,67,59,68,64,59,99,91,65,29.93,29.71,21,9,30,0.51
2013-5-31,80,69,64,68,64,61,99,86,57,29.98,29.84,19,5,26,0.02
2013-6-1,68,62,57,67,54,48,99,75,58,30.18,29.91,16,7,23,0.00
2013-6-2,69,59,54,54,48,43,96,69,43,30.30,30.19,11,5,17,0.00
2013-6-3,75,63,47,55,50,45,99,65,43,30.27,30.09,16,5,20,0.04
2013-6-4,79,66,60,66,59,54,86,77,62,30.18,30.10,16,8,24,0.21
2013-6-5,69,65,60,66,64,42,99,96,39,30.04,29.88,11,3,17,0.91
2013-6-6,76,65,53,60,54,48,99,71,40,29.93,29.87,10,3,15,0.01
2013-6-7,76,64,53,60,52,46,99,69,36,29.96,29.86,12,4,18,0.00
2013-6-8,80,68,54,64,55,46,99,67,43,29.89,29.69,19,7,27,0.54
2013-6-9,72,66,61,71,60,57,99,83,61,29.78,29.71,17,6,22,0.37
2013-6-10,86,75,61,65,62,57,99,67,40,29.85,29.75,8,4,12,0.00
2013-6-11,92,79,68,66,63,56,84,60,31,29.81,29.66,25,9,31,0.00
2013-6-12,93,83,69,70,66,55,75,58,38,29.91,29.67,24,11,30,0.00
2013-6-13,88,71,61,62,57,53,81,63,32,30.02,29.82,28,5,36,0.08
2013-6-14,86,75,64,69,63,57,86,68,47,29.99,29.82,21,7,27,0.01
2013-6-15,88,74,66,74,67,61,99,79,49,29.91,29.84,20,6,26,0.43
2013-6-16,86,74,65,75,68,64,99,85,57,29.93,29.87,10,3,14,0.01
2013-6-17,91,76,67,75,66,54,99,76,36,29.95,29.86,10,3,13,0.00
2013-6-18,86,74,66,66,61,51,94,65,34,30.03,29.91,13,3,18,0.01
2013-6-19,88,76,64,67,64,57,99,68,42,29.99,29.89,14,4,17,0.00
2013-6-20,89,80,69,72,69,64,97,71,54,29.95,29.82,22,8,31,0.00
2013-6-21,93,83,76,75,71,68,89,69,46,29.91,29.82,24,12,34,0.00
2013-6-22,92,83,73,72,68,62,81,60,43,29.94,29.77,24,9,30,0.00
2013-6-23,83,76,67,74,69,61,95,80,66,29.93,29.69,26,9,38,0.50
2013-6-24,86,77,67,74,70,65,99,80,52,29.99,29.71,25,7,36,0.90
2013-6-25,90,81,74,75,68,64,85,66,54,29.78,29.68,25,14,36,0.19
2013-6-26,94,84,76,73,69,64,92,62,39,29.84,29.61,16,6,22,0.00
2013-6-27,83,76,69,75,70,64,99,84,60,29.96,29.82,22,4,30,0.06
2013-6-28,86,77,67,71,61,46,99,63,27,29.89,29.80,18,6,27,0.01
2013-6-29,80,70,63,64,57,52,95,64,40,29.85,29.77,20,7,32,0.22
2013-6-30,80,70,58,58,54,50,97,60,38,30.00,29.85,13,5,23,0.00
2013-7-1,84,75,55,55,49,40,89,44,23,30.08,30.00,14,6,21,0.00
2013-7-2,71,68,67,65,62,58,91,80,72,30.00,29.99,3,0,5,0.18
2013-7-3,87,75,61,62,56,40,86,53,26,30.01,29.92,16,4,21,0.00
2013-7-4,71,62,58,59,56,55,92,82,59,30.00,29.94,7,2,10,0.00
2013-7-5,89,77,64,64,59,56,81,57,35,29.93,29.83,12,6,16,0.00
2013-7-6,89,82,68,66,62,58,79,53,39,29.90,29.82,19,11,26,0.00
2013-7-7,92,82,72,68,66,62,79,58,41,29.89,29.83,18,8,24,0.00
2013-7-8,93,84,76,74,68,60,76,59,47,29.95,29.88,17,6,24,0.00
2013-7-9,100,86,75,79,72,67,90,65,37,29.95,29.80,15,5,20,0.00
2013-7-10,90,80,70,80,66,55,99,65,34,30.01,29.83,29,5,46,0.35
2013-7-11,93,76,62,64,57,49,94,56,29,30.05,29.93,13,5,17,0.00
2013-7-12,89,78,64,62,58,56,86,54,35,30.00,29.91,14,5,20,0.00
2013-7-13,80,72,68,61,57,55,68,61,50,29.98,29.94,11,5,15,0.00
2013-7-14,88,81,65,62,56,48,89,45,26,30.08,29.96,15,6,24,0.00
2013-7-15,90,79,68,68,64,58,87,62,38,30.14,30.05,12,5,17,0.00
2013-7-16,77,74,72,67,66,65,83,75,69,30.13,30.12,4,2,6,0.00
2013-7-29,67,65,64,66,65,60,99,98,84,30.03,29.94,14,6,17,1.16
2013-7-30,86,73,66,75,70,66,99,91,56,30.02,29.93,9,3,13,0.09
2013-7-31,89,72,66,72,67,61,99,86,40,30.08,29.99,8,1,11,0.00
2013-8-1,90,78,66,71,66,58,99,70,35,30.04,29.90,9,3,14,0.02
2013-8-2,89,77,65,71,66,58,99,70,44,29.96,29.77,21,5,29,0.28
2013-8-3,87,75,64,69,62,56,89,65,40,30.10,29.91,12,6,16,0.00
2013-8-4,75,70,63,69,60,52,95,70,56,30.11,29.97,12,5,17,0.02
2013-8-5,86,76,68,75,71,67,99,86,59,29.99,29.76,12,3,16,0.00
2013-8-6,90,80,70,77,72,69,99,79,52,29.85,29.74,14,3,17,0.00
2013-8-7,89,78,69,77,68,57,99,74,37,29.92,29.73,10,3,15,0.00
2013-8-8,80,70,64,69,64,60,99,80,57,29.96,29.88,11,3,14,0.00
2013-8-9,87,74,65,69,65,58,99,75,38,30.06,29.94,8,2,9,0.00
2013-8-10,88,74,61,66,58,49,99,62,30,30.15,30.03,11,3,18,0.00
2013-8-11,88,76,63,67,62,56,97,64,38,30.08,29.94,13,4,17,0.00
2013-8-12,90,73,66,75,69,55,99,88,38,29.99,29.91,22,2,29,0.37
2013-8-13,84,72,62,68,58,49,99,68,30,30.09,29.99,10,3,14,0.01
2013-8-14,83,70,58,56,53,43,91,59,26,30.15,30.03,9,3,13,0.00
2013-8-15,72,65,61,66,58,53,99,78,56,30.08,29.99,11,4,17,0.41
2013-8-16,79,68,62,56,53,48,80,62,35,30.13,30.02,10,4,14,0.00
2013-8-17,83,71,53,57,52,46,99,55,29,30.16,30.06,11,2,15,0.00
2013-8-18,84,72,59,60,56,52,89,59,35,30.14,30.02,14,3,18,0.00
2013-8-19,86,74,62,65,62,57,99,70,39,30.07,29.94,14,5,20,0.00
2013-8-20,90,78,67,66,64,58,91,64,36,30.00,29.92,16,6,21,0.00
2013-8-21,94,80,68,69,66,61,95,65,37,30.01,29.93,13,6,17,0.00
2013-8-22,92,80,69,72,68,65,99,70,44,30.04,29.97,11,3,14,0.00
2013-8-23,93,81,69,72,67,55,99,66,34,30.05,29.97,14,4,18,0.00
2013-8-24,93,82,71,71,68,63,93,65,39,30.08,29.99,17,6,24,0.00
2013-8-25,94,82,70,71,68,64,94,65,38,30.14,30.05,16,6,23,0.00
2013-8-26,96,84,71,71,68,60,99,62,31,30.10,29.98,17,7,22,0.00
2013-8-27,96,84,73,68,64,58,84,54,31,29.99,29.90,18,8,24,0.00
2013-8-28,95,83,71,68,64,53,79,56,28,30.00,29.93,14,5,20,0.00
2013-8-29,97,84,72,72,68,60,92,61,30,29.99,29.88,17,4,21,0.00
2013-8-30,101,87,75,68,64,53,77,50,21,29.90,29.77,14,5,19,0.00
2013-8-31,93,81,72,76,71,65,99,75,49,29.84,29.74,9,2,11,0.00
2013-9-1,86,75,66,74,65,53,99,74,36,29.93,29.72,23,6,34,0.00
2013-9-2,84,70,58,62,56,41,99,66,24,30.03,29.92,12,3,19,0.00
2013-9-3,90,71,53,57,50,33,99,56,16,30.07,29.98,8,2,11,0.00
2013-9-4,90,76,62,62,55,42,83,52,21,30.14,30.00,8,2,13,0.00
2013-9-5,90,76,64,62,56,41,82,53,18,30.16,30.06,11,2,13,0.00
2013-9-6,92,78,67,61,58,54,77,52,29,30.08,29.92,13,4,17,0.00
2013-9-7,100,83,70,67,62,55,75,51,23,29.93,29.80,16,6,22,0.00
2013-9-8,95,82,73,73,64,55,85,57,28,29.86,29.75,8,3,11,0.00
2013-9-9,98,85,72,64,56,42,67,41,16,29.88,29.80,18,7,27,0.00
2013-9-10,97,83,69,61,57,48,71,45,20,30.00,29.88,20,8,27,0.00
2013-9-11,92,80,70,73,61,54,99,56,30,30.05,29.99,12,4,18,0.00
2013-9-12,86,74,64,74,56,33,99,61,17,30.12,30.03,12,4,18,0.00
2013-9-13,78,65,52,51,41,27,93,46,16,30.16,30.02,11,4,17,0.00
2013-9-14,80,66,52,48,41,35,62,42,21,30.06,29.88,15,5,20,0.00
2013-9-15,72,65,61,68,58,47,99,78,50,30.14,29.85,13,5,17,0.89
2013-9-16,65,60,56,58,54,48,92,81,67,30.24,30.13,13,7,17,0.02
2013-9-17,79,66,59,69,62,55,99,90,64,30.14,29.90,14,6,18,0.19
2013-9-18,89,81,66,71,65,8,99,61,40,30.05,29.79,27,11,33,1.10
2013-9-19,92,76,64,68,64,58,99,70,34,29.94,29.73,24,9,34,0.89
2013-9-20,71,62,54,64,46,36,99,58,29,30.06,29.91,15,6,24,0.00
2013-9-21,78,63,45,49,41,26,97,51,18,30.05,29.91,8,2,11,0.00
2013-9-22,79,65,52,48,45,38,83,52,25,29.99,29.87,17,6,22,0.00
2013-9-23,82,65,54,49,44,30,79,50,19,29.93,29.77,19,7,26,0.00
2013-9-24,78,68,59,60,53,47,99,59,38,29.88,29.76,8,2,11,0.00
2013-9-25,64,57,52,60,57,52,99,99,97,29.91,29.86,4,2,7,0.00
2013-9-26,85,72,61,62,56,49,99,63,29,29.91,29.83,16,8,21,0.00
2013-9-27,86,78,67,59,56,50,75,47,30,29.96,29.85,19,8,27,0.01
2013-9-28,72,64,52,68,52,42,99,66,39,30.08,29.78,19,6,28,0.17
2013-9-29,60,51,49,55,48,42,99,88,63,30.09,30.06,2,1,4,0.01
2013-9-30,80,64,50,55,46,33,99,59,19,29.95,29.80,12,5,16,0.00
2013-10-1,89,76,56,60,53,42,93,48,23,29.96,29.83,14,6,18,0.00
2013-10-2,85,73,63,66,62,56,98,70,39,30.00,29.87,15,4,20,0.00
2013-10-3,83,73,63,70,65,60,99,80,53,29.92,29.73,20,6,25,0.71
2013-10-4,76,76,76,64,64,64,68,68,68,29.81,29.81,5,5,9,0.00
2013-10-5,62,53,45,48,28,20,61,40,22,30.00,29.87,15,9,21,0.01
2013-10-6,53,48,42,43,36,28,85,65,52,29.98,29.81,14,9,23,0.02
2013-10-7,76,57,43,43,32,14,90,46,10,30.11,29.98,9,4,13,0.00
2013-10-8,76,62,49,42,35,22,69,42,13,30.08,29.98,19,8,24,0.00
2013-10-9,77,63,51,44,39,27,73,45,16,30.08,30.01,13,5,17,0.00
2013-10-10,79,64,51,45,43,39,78,48,25,30.05,29.87,14,5,18,0.00
2013-10-11,73,68,57,56,53,45,76,60,52,29.88,29.75,20,10,27,0.02
2013-10-12,96,89,81,69,66,61,64,47,33,30.08,30.00,14,8,21,0.01
2013-10-13,95,84,73,68,64,59,84,53,30,30.00,29.91,15,8,21,0.00
2013-10-14,94,83,71,68,64,56,79,56,29,30.01,29.95,11,5,17,0.00
2013-10-15,86,56,48,71,33,25,92,44,29,30.02,29.91,19,10,30,3.85
2013-10-16,58,50,46,36,31,26,63,49,31,30.03,29.93,15,6,21,0.00
2013-10-17,62,47,41,38,34,26,76,61,27,29.93,29.88,11,4,15,0.00
2013-10-18,48,41,35,32,28,13,88,62,26,30.08,29.97,11,5,16,0.00
2013-10-19,64,47,33,34,24,3,99,54,10,30.00,29.81,17,7,23,0.00
2013-10-20,66,54,42,33,26,8,67,38,10,29.92,29.74,10,6,14,0.00
2013-10-21,56,46,35,29,18,0,72,39,10,30.07,29.93,11,5,16,0.00
2013-10-22,54,46,37,36,27,21,67,48,28,30.05,29.83,18,8,28,0.00
2013-10-23,53,44,29,30,23,11,89,47,19,30.14,29.99,9,4,14,0.00
2013-10-24,52,41,32,30,12,-7,76,38,10,30.36,30.13,15,4,21,0.00
2013-10-25,58,44,29,18,8,-4,58,28,10,30.38,30.07,19,6,27,0.00
2013-10-26,58,48,37,29,14,-2,59,29,10,30.13,29.99,14,6,24,0.00
2013-10-27,65,47,31,26,13,-3,79,34,10,30.11,29.86,17,6,23,0.00
2013-10-28,72,54,39,24,15,5,47,23,10,30.14,29.93,11,4,15,0.00
2013-10-29,65,54,47,59,48,15,99,83,22,30.15,29.90,14,6,18,0.22
2013-10-30,68,61,51,66,60,31,99,99,35,29.93,29.66,17,4,33,1.84
2013-10-31,59,46,40,52,46,22,99,98,35,29.69,29.51,13,5,18,0.26
2013-11-1,59,49,42,31,28,12,63,47,16,29.92,29.57,13,7,18,0.00
2013-11-2,58,47,40,32,22,4,67,42,12,30.13,29.92,14,7,19,0.00
2013-11-3,58,49,37,25,19,6,60,34,12,30.10,29.82,23,10,32,0.02
2013-11-4,59,54,48,40,34,22,66,48,29,30.05,29.82,15,7,22,0.01
2013-11-5,65,55,51,65,53,41,99,95,66,30.06,29.83,15,8,22,0.18
2013-11-11,50,33,21,39,12,-2,66,40,29,30.41,29.93,19,12,30,0.00
2013-11-12,37,24,13,2,-9,-24,56,28,10,30.58,30.36,15,4,23,0.00
2013-11-13,51,35,19,2,-7,-17,40,19,10,30.36,29.84,21,11,28,0.00
2013-11-14,39,38,37,-2,-7,-13,18,14,10,29.84,29.76,19,12,27,0.00
2013-11-15,60,48,37,32,15,0,53,30,10,29.67,29.44,14,7,17,0.00
2013-11-16,71,61,49,58,44,33,99,56,25,29.44,29.11,26,14,34,0.20
2013-11-17,65,57,44,54,25,0,72,35,10,29.78,29.02,23,11,32,0.04
2013-11-18,61,47,33,25,8,-6,72,25,10,30.01,29.79,10,4,14,0.00
2013-11-19,62,52,36,14,1,-4,39,13,10,29.97,29.69,21,10,27,0.00
2013-11-20,50,44,40,31,20,-6,71,43,10,29.71,29.58,24,8,32,0.34
2013-11-21,43,37,25,36,29,17,83,74,67,30.16,29.68,13,3,115,0.09
2013-11-22,27,23,18,18,10,5,76,58,50,30.35,30.16,0,0,0,0.00
2013-11-23,25,19,9,7,-6,-22,54,33,13,30.52,30.30,0,0,0,0.00
2013-11-24,28,19,8,-4,-14,-24,52,27,10,30.47,30.01,11,1,14,0.00
2013-11-25,42,32,26,13,-3,-18,47,23,10,30.01,29.85,16,6,21,0.00
2013-11-26,31,30,29,14,13,13,51,49,47,29.90,29.88,6,3,9,0.00
2013-11-27,33,24,11,-7,-16,-23,42,20,10,30.12,29.81,14,6,21,0.00
2013-11-28,38,29,23,2,-8,-21,35,21,10,30.19,29.81,14,6,18,0.00
2013-11-29,50,34,22,6,-1,-11,38,24,10,30.19,29.93,11,5,16,0.00
2013-11-30,57,46,33,18,5,-4,50,21,10,29.93,29.79,11,4,15,0.00
2013-12-1,60,41,27,21,7,-7,68,29,10,29.86,29.59,8,3,11,0.00
2013-12-2,62,45,35,35,17,-1,79,38,10,29.59,29.30,16,6,21,0.00
2013-12-3,60,45,37,44,30,5,100,66,12,29.35,29.24,13,5,16,0.00
2013-12-4,41,30,18,38,21,-20,99,77,17,29.78,29.28,21,9,28,0.05
2013-12-5,18,15,11,-5,-27,-33,37,13,10,30.11,29.75,20,10,27,0.00
2013-12-6,17,11,5,-30,-35,-39,15,10,10,30.37,30.10,15,7,23,0.00
2013-12-7,23,10,-3,-27,-31,-41,26,14,10,30.43,30.10,14,6,20,0.00
2013-12-8,22,17,12,3,-8,-33,50,35,10,30.11,29.70,14,5,18,0.00
2013-12-9,14,7,1,-4,-28,-43,44,21,10,30.09,29.86,14,5,20,0.00
2013-12-10,45,23,6,-10,-25,-36,15,10,10,30.00,29.85,17,7,23,0.00
2013-12-11,27,13,4,-6,-30,-40,25,12,10,30.33,29.92,16,4,21,0.00
2013-12-12,40,23,4,-12,-24,-40,14,10,10,30.26,29.85,17,6,22,0.00
2013-12-13,40,33,25,34,18,-20,100,61,10,29.86,29.58,13,5,19,0.02
2013-12-14,30,23,17,30,4,-12,100,47,23,29.92,29.66,17,8,25,0.00
2013-12-15,36,32,18,4,-7,-16,44,20,10,29.90,26.59,117,5,117,0.00
2013-12-16,46,30,22,26,10,-7,74,48,11,29.88,29.67,8,3,11,0.00
2013-12-17,43,34,28,13,-11,-21,52,15,10,29.99,29.87,15,4,21,0.00
2013-12-18,65,45,28,7,-8,-22,13,10,10,29.91,29.48,25,10,33,0.00
2013-12-19,55,46,34,20,9,-8,57,24,10,29.50,29.38,13,6,20,0.00
2013-12-20,34,22,18,26,11,4,78,61,56,29.66,29.46,15,7,22,0.00
2013-12-21,27,22,19,14,8,2,67,53,46,29.64,29.40,12,4,18,0.00
2013-12-22,23,18,6,15,-3,-25,70,43,16,30.08,29.47,0,0,0,0.01
2013-12-23,6,4,2,-24,-30,-40,23,18,10,30.22,30.07,0,0,0,0.00
2013-12-24,27,11,-6,12,-26,-41,53,18,10,30.26,29.90,14,5,20,0.00
2013-12-25,42,30,24,16,-3,-16,62,28,10,30.03,29.92,13,6,17,0.00
2013-12-26,46,33,20,4,-9,-19,44,19,10,30.01,29.86,17,7,21,0.00
2013-12-27,53,38,23,4,-7,-16,41,16,10,30.01,29.85,11,6,15,0.00
2013-12-28,55,45,30,0,-7,-16,25,11,10,29.84,29.57,23,10,30,0.01
2013-12-29,29,12,4,-8,-33,-40,20,10,10,30.04,29.70,21,10,34,0.01
2013-12-30,29,16,3,-21,-31,-41,10,10,10,30.02,29.85,13,6,18,0.00
2013-12-31,54,28,12,-2,-19,-32,20,12,10,30.01,29.71,21,6,26,0.00
2014-1-1,18,12,2,-18,-27,-43,23,16,10,30.05,29.78,17,9,23,0.00
2014-1-2,13,3,-4,-34,-41,-46,10,10,10,30.19,30.03,11,4,17,0.00